createdAt,value
2023-02-11T00:00:45.541Z,9.279889
2023-02-11T00:01:45.556Z,9.279928
2023-02-11T00:02:47.816Z,9.279962
2023-02-11T00:03:46.582Z,9.279975
2023-02-11T00:04:45.469Z,9.279978
2023-02-11T00:05:45.450Z,9.280015
2023-02-11T00:06:45.460Z,9.279962
2023-02-11T00:07:45.415Z,9.280038
2023-02-11T00:08:45.400Z,9.280036
2023-02-11T00:09:45.381Z,9.280000
2023-02-11T00:10:45.359Z,9.279957
2023-02-11T00:11:45.372Z,9.279963
2023-02-11T00:12:45.326Z,9.279926
2023-02-11T00:13:45.310Z,9.279907
2023-02-11T00:14:45.288Z,9.279949
2023-02-11T00:15:45.280Z,9.280009
2023-02-11T00:16:45.334Z,9.280032
2023-02-11T00:17:45.242Z,9.279983
2023-02-11T00:18:45.218Z,9.280006
2023-02-11T00:19:45.199Z,9.279985
2023-02-11T00:20:45.183Z,9.279875
2023-02-11T00:21:45.197Z,9.279794
2023-02-11T00:22:45.149Z,9.279916
2023-02-11T00:23:45.133Z,9.279826
2023-02-11T00:24:45.117Z,9.279786
2023-02-11T00:25:45.101Z,9.279906
2023-02-11T00:26:45.108Z,9.279792
2023-02-11T00:27:45.060Z,9.279853
2023-02-11T00:28:45.043Z,9.279956
2023-02-11T00:29:45.019Z,9.279827
2023-02-11T00:30:45.128Z,9.279990
2023-02-11T00:31:45.257Z,9.280049
2023-02-11T00:32:44.969Z,9.280053
2023-02-11T00:33:44.946Z,9.279869
2023-02-11T00:34:44.929Z,9.279754
2023-02-11T00:35:44.908Z,9.279788
2023-02-11T00:36:44.918Z,9.279888
2023-02-11T00:37:44.871Z,9.279804
2023-02-11T00:38:44.858Z,9.279769
2023-02-11T00:39:44.837Z,9.279820
2023-02-11T00:40:44.817Z,9.279758
2023-02-11T00:41:44.844Z,9.279834
2023-02-11T00:42:44.784Z,9.279959
2023-02-11T00:43:44.763Z,9.279953
2023-02-11T00:44:44.746Z,9.279923
2023-02-11T00:45:44.848Z,9.280044
2023-02-11T00:46:44.853Z,9.279931
2023-02-11T00:47:44.690Z,9.279917
2023-02-11T00:48:44.696Z,9.279845
2023-02-11T00:49:44.654Z,9.279976
2023-02-11T00:50:44.634Z,9.279968
2023-02-11T00:51:44.645Z,9.279880
2023-02-11T00:52:44.593Z,9.280123
2023-02-11T00:53:44.580Z,9.280179
2023-02-11T00:54:44.560Z,9.280090
2023-02-11T00:55:44.540Z,9.279799
2023-02-11T00:56:44.551Z,9.279933
2023-02-11T00:57:44.505Z,9.279888
2023-02-11T00:58:44.483Z,9.279779
2023-02-11T00:59:44.471Z,9.279794
2023-02-11T01:00:44.449Z,9.280034
2023-02-11T01:01:44.570Z,9.280167
2023-02-11T01:02:44.430Z,9.280036
2023-02-11T01:03:44.400Z,9.279940
2023-02-11T01:04:44.377Z,9.279963
2023-02-11T01:05:44.363Z,9.279994
2023-02-11T01:06:44.377Z,9.279880
2023-02-11T01:07:44.331Z,9.279779
2023-02-11T01:08:44.311Z,9.280034
2023-02-11T01:09:44.293Z,9.280068
2023-02-11T01:10:44.278Z,9.279930
2023-02-11T01:11:44.286Z,9.279953
2023-02-11T01:12:44.243Z,9.280086
2023-02-11T01:13:44.220Z,9.279852
2023-02-11T01:14:44.204Z,9.280057
2023-02-11T01:15:44.222Z,9.280223
2023-02-11T01:16:44.195Z,9.280118
2023-02-11T01:17:44.151Z,9.280109
2023-02-11T01:18:44.157Z,9.280253
2023-02-11T01:19:44.163Z,9.280115
2023-02-11T01:20:44.099Z,9.280243
2023-02-11T01:21:44.107Z,9.280294
2023-02-11T01:22:44.053Z,9.280232
2023-02-11T01:23:45.054Z,9.279954
2023-02-11T01:24:44.026Z,9.280140
2023-02-11T01:25:44.019Z,9.280190
2023-02-11T01:26:44.021Z,9.280394
2023-02-11T01:27:43.969Z,9.280166
2023-02-11T01:28:43.952Z,9.280120
2023-02-11T01:29:43.942Z,9.280239
2023-02-11T01:30:43.975Z,9.280038
2023-02-11T01:31:43.946Z,9.280071
2023-02-11T01:32:43.883Z,9.280121
2023-02-11T01:33:43.862Z,9.280191
2023-02-11T01:34:43.848Z,9.280019
2023-02-11T01:35:43.828Z,9.279999
2023-02-11T01:36:43.843Z,9.280113
2023-02-11T01:37:43.793Z,9.280096
2023-02-11T01:38:43.773Z,9.280153
2023-02-11T01:39:43.766Z,9.280153
2023-02-11T01:40:43.739Z,9.280024
2023-02-11T01:41:43.751Z,9.280006
2023-02-11T01:42:43.698Z,9.280010
2023-02-11T01:43:43.686Z,9.280103
2023-02-11T01:44:43.664Z,9.280064
2023-02-11T01:45:43.646Z,9.279933
2023-02-11T01:46:43.696Z,9.279814
2023-02-11T01:47:43.618Z,9.280005
2023-02-11T01:48:43.592Z,9.279963
2023-02-11T01:49:43.566Z,9.280119
2023-02-11T01:50:44.557Z,9.280048
2023-02-11T01:51:43.573Z,9.280108
2023-02-11T01:52:43.526Z,9.279961
2023-02-11T01:53:43.510Z,9.279965
2023-02-11T01:54:43.485Z,9.280098
2023-02-11T01:55:43.473Z,9.280033
2023-02-11T01:56:43.481Z,9.279966
2023-02-11T01:57:43.426Z,9.279948
2023-02-11T01:58:43.413Z,9.279883
2023-02-11T01:59:43.420Z,9.280099
2023-02-11T02:00:43.376Z,9.280043
2023-02-11T02:01:43.463Z,9.279931
2023-02-11T02:02:43.337Z,9.279923
2023-02-11T02:03:43.361Z,9.279984
2023-02-11T02:04:43.325Z,9.280067
2023-02-11T02:05:43.276Z,9.280073
2023-02-11T02:06:44.291Z,9.280115
2023-02-11T02:07:43.244Z,9.280035
2023-02-11T02:08:43.229Z,9.279992
2023-02-11T02:09:43.205Z,9.280124
2023-02-11T02:10:43.186Z,9.280079
2023-02-11T02:11:43.211Z,9.280215
2023-02-11T02:12:43.153Z,9.280251
2023-02-11T02:13:43.149Z,9.280190
2023-02-11T02:14:43.147Z,9.280009
2023-02-11T02:15:43.118Z,9.280058
2023-02-11T02:16:43.160Z,9.280041
2023-02-11T02:17:43.091Z,9.280010
2023-02-11T02:18:43.037Z,9.279984
2023-02-11T02:19:43.020Z,9.279984
2023-02-11T02:20:43.002Z,9.279915
2023-02-11T02:21:42.990Z,9.279900
2023-02-11T02:22:43.005Z,9.279990
2023-02-11T02:23:42.948Z,9.279985
2023-02-11T02:24:42.930Z,9.279962
2023-02-11T02:25:42.943Z,9.280030
2023-02-11T02:26:42.893Z,9.280092
2023-02-11T02:27:42.908Z,9.279968
2023-02-11T02:28:42.858Z,9.279988
2023-02-11T02:29:42.837Z,9.279792
2023-02-11T02:30:42.846Z,9.279851
2023-02-11T02:31:42.838Z,9.279987
2023-02-11T02:32:42.810Z,9.279977
2023-02-11T02:33:42.772Z,9.279966
2023-02-11T02:34:42.745Z,9.279929
2023-02-11T02:35:42.726Z,9.279974
2023-02-11T02:36:42.713Z,9.279988
2023-02-11T02:37:42.723Z,9.279976
2023-02-11T02:38:42.672Z,9.279908
2023-02-11T02:39:42.653Z,9.279943
2023-02-11T02:40:42.629Z,9.279931
2023-02-11T02:41:42.612Z,9.279988
2023-02-11T02:42:42.625Z,9.279922
2023-02-11T02:43:42.578Z,9.279994
2023-02-11T02:44:42.563Z,9.279927
2023-02-11T02:45:42.571Z,9.279783
2023-02-11T02:46:42.584Z,9.279990
2023-02-11T02:47:42.506Z,9.279961
2023-02-11T02:48:42.486Z,9.279944
2023-02-11T02:49:42.469Z,9.279928
2023-02-11T02:50:42.493Z,9.280013
2023-02-11T02:51:42.435Z,9.279990
2023-02-11T02:52:42.427Z,9.279931
2023-02-11T02:53:42.398Z,9.280064
2023-02-11T02:54:42.373Z,9.280032
2023-02-11T02:55:42.387Z,9.279964
2023-02-11T02:56:42.347Z,9.280118
2023-02-11T02:57:42.349Z,9.280074
2023-02-11T02:58:42.304Z,9.280064
2023-02-11T02:59:42.293Z,9.279926
2023-02-11T03:00:42.343Z,9.280082
2023-02-11T03:01:42.251Z,9.279974
2023-02-11T03:02:42.274Z,9.280026
2023-02-11T03:03:42.242Z,9.280014
2023-02-11T03:04:42.207Z,9.279945
2023-02-11T03:05:42.178Z,9.279905
2023-02-11T03:06:42.159Z,9.279974
2023-02-11T03:07:42.175Z,9.279892
2023-02-11T03:08:42.129Z,9.279931
2023-02-11T03:09:42.108Z,9.280056
2023-02-11T03:10:42.089Z,9.280068
2023-02-11T03:11:42.114Z,9.280128
2023-02-11T03:12:42.046Z,9.280060
2023-02-11T03:13:42.036Z,9.280062
2023-02-11T03:14:42.009Z,9.279978
2023-02-11T03:15:43.000Z,9.279897
2023-02-11T03:16:42.047Z,9.279900
2023-02-11T03:17:41.988Z,9.279902
2023-02-11T03:18:41.937Z,9.280005
2023-02-11T03:19:42.926Z,9.279943
2023-02-11T03:20:41.914Z,9.279928
2023-02-11T03:21:41.893Z,9.279887
2023-02-11T03:22:41.953Z,9.279911
2023-02-11T03:23:41.863Z,9.279896
2023-02-11T03:24:41.835Z,9.279966
2023-02-11T03:25:41.811Z,9.280006
2023-02-11T03:26:41.799Z,9.280006
2023-02-11T03:27:41.814Z,9.279952
2023-02-11T03:28:41.760Z,9.280002
2023-02-11T03:29:41.741Z,9.279996
2023-02-11T03:30:41.751Z,9.280095
2023-02-11T03:31:41.789Z,9.280031
2023-02-11T03:32:41.711Z,9.279941
2023-02-11T03:33:41.667Z,9.279958
2023-02-11T03:34:41.656Z,9.279969
2023-02-11T03:35:41.629Z,9.280026
2023-02-11T03:36:41.610Z,9.279963
2023-02-11T03:37:41.625Z,9.279982
2023-02-11T03:38:41.575Z,9.279969
2023-02-11T03:39:41.568Z,9.279929
2023-02-11T03:40:41.538Z,9.279929
2023-02-11T03:41:41.515Z,9.279987
2023-02-11T03:42:42.542Z,9.279997
2023-02-11T03:43:41.488Z,9.280030
2023-02-11T03:44:41.465Z,9.280010
2023-02-11T03:45:41.504Z,9.279970
2023-02-11T03:46:41.432Z,9.279954
2023-02-11T03:47:41.443Z,9.279883
2023-02-11T03:48:41.392Z,9.279970
2023-02-11T03:49:41.375Z,9.279947
2023-02-11T03:50:41.356Z,9.279890
2023-02-11T03:51:41.334Z,9.279765
2023-02-11T03:52:41.343Z,9.279939
2023-02-11T03:53:41.296Z,9.279917
2023-02-11T03:54:41.278Z,9.279916
2023-02-11T03:55:41.260Z,9.279874
2023-02-11T03:56:41.241Z,9.279898
2023-02-11T03:57:41.250Z,9.279872
2023-02-11T03:58:41.295Z,9.279900
2023-02-11T03:59:41.182Z,9.279958
2023-02-11T04:00:41.204Z,9.279928
2023-02-11T04:01:41.147Z,9.279937
2023-02-11T04:02:41.161Z,9.279977
2023-02-11T04:03:41.112Z,9.279903
2023-02-11T04:04:41.092Z,9.279914
2023-02-11T04:05:41.075Z,9.279943
2023-02-11T04:06:41.059Z,9.279942
2023-02-11T04:07:41.070Z,9.279982
2023-02-11T04:08:41.018Z,9.279919
2023-02-11T04:09:41.000Z,9.279909
2023-02-11T04:10:40.987Z,9.279981
2023-02-11T04:11:40.966Z,9.279982
2023-02-11T04:12:40.980Z,9.279893
2023-02-11T04:13:40.930Z,9.279764
2023-02-11T04:14:40.912Z,9.279854
2023-02-11T04:15:40.893Z,9.279839
2023-02-11T04:16:40.943Z,9.279821
2023-02-11T04:17:40.886Z,9.279840
2023-02-11T04:18:40.849Z,9.279902
2023-02-11T04:19:40.831Z,9.279897
2023-02-11T04:20:40.797Z,9.279828
2023-02-11T04:21:40.778Z,9.279780
2023-02-11T04:22:40.802Z,9.279762
2023-02-11T04:23:40.741Z,9.279811
2023-02-11T04:24:40.724Z,9.279892
2023-02-11T04:25:40.705Z,9.279885
2023-02-11T04:26:40.691Z,9.279977
2023-02-11T04:27:40.701Z,9.279982
2023-02-11T04:28:40.646Z,9.280000
2023-02-11T04:29:40.635Z,9.279960
2023-02-11T04:30:40.653Z,9.279963
2023-02-11T04:31:40.637Z,9.279887
2023-02-11T04:32:40.608Z,9.279875
2023-02-11T04:33:40.556Z,9.279743
2023-02-11T04:34:40.545Z,9.279820
2023-02-11T04:35:40.514Z,9.279884
2023-02-11T04:36:40.499Z,9.279874
2023-02-11T04:37:40.514Z,9.279943
2023-02-11T04:38:40.461Z,9.279914
2023-02-11T04:39:40.442Z,9.279930
2023-02-11T04:40:40.424Z,9.279960
2023-02-11T04:41:40.405Z,9.279934
2023-02-11T04:42:40.423Z,9.279898
2023-02-11T04:43:40.364Z,9.279893
2023-02-11T04:44:40.346Z,9.279846
2023-02-11T04:45:40.393Z,9.279862
2023-02-11T04:46:40.311Z,9.279887
2023-02-11T04:47:40.322Z,9.279906
2023-02-11T04:48:40.269Z,9.279954
2023-02-11T04:49:40.255Z,9.279976
2023-02-11T04:50:40.240Z,9.279943
2023-02-11T04:51:40.214Z,9.279921
2023-02-11T04:52:40.227Z,9.279964
2023-02-11T04:53:40.185Z,9.279805
2023-02-11T04:54:40.160Z,9.279877
2023-02-11T04:55:40.145Z,9.279940
2023-02-11T04:56:40.121Z,9.279932
2023-02-11T04:57:40.134Z,9.279947
2023-02-11T04:58:40.086Z,9.279914
2023-02-11T04:59:40.066Z,9.279840
2023-02-11T05:00:40.046Z,9.279913
2023-02-11T05:01:40.111Z,9.279915
2023-02-11T05:02:40.044Z,9.280020
2023-02-11T05:03:39.992Z,9.279956
2023-02-11T05:04:39.975Z,9.279869
2023-02-11T05:05:39.955Z,9.279897
2023-02-11T05:06:39.938Z,9.279862
2023-02-11T05:07:39.953Z,9.279922
2023-02-11T05:08:39.895Z,9.279855
2023-02-11T05:09:39.883Z,9.279874
2023-02-11T05:10:39.860Z,9.279911
2023-02-11T05:11:39.848Z,9.279891
2023-02-11T05:12:39.859Z,9.279796
2023-02-11T05:13:39.804Z,9.279870
2023-02-11T05:14:39.788Z,9.280000
2023-02-11T05:15:39.769Z,9.279992
2023-02-11T05:16:39.821Z,9.279943
2023-02-11T05:17:39.762Z,9.279836
2023-02-11T05:18:39.713Z,9.279819
2023-02-11T05:19:39.704Z,9.279946
2023-02-11T05:20:39.674Z,9.279888
2023-02-11T05:21:42.343Z,9.279918
2023-02-11T05:22:40.665Z,9.279969
2023-02-11T05:23:39.623Z,9.279969
2023-02-11T05:24:39.611Z,9.280009
2023-02-11T05:25:39.579Z,9.279979
2023-02-11T05:26:39.567Z,9.279967
2023-02-11T05:27:39.573Z,9.279923
2023-02-11T05:28:39.532Z,9.279977
2023-02-11T05:29:39.505Z,9.279988
2023-02-11T05:30:39.530Z,9.279933
2023-02-11T05:31:39.486Z,9.279980
2023-02-11T05:32:39.490Z,9.279997
2023-02-11T05:33:39.433Z,9.279938
2023-02-11T05:34:39.416Z,9.280003
2023-02-11T05:35:39.396Z,9.279971
2023-02-11T05:36:39.379Z,9.279949
2023-02-11T05:37:39.423Z,9.279982
2023-02-11T05:38:39.338Z,9.279896
2023-02-11T05:39:39.319Z,9.279949
2023-02-11T05:40:39.298Z,9.280232
2023-02-11T05:41:39.281Z,9.280070
2023-02-11T05:42:39.292Z,9.280087
2023-02-11T05:43:39.278Z,9.280121
2023-02-11T05:44:39.230Z,9.280112
2023-02-11T05:45:39.204Z,9.280091
2023-02-11T05:46:39.207Z,9.280045
2023-02-11T05:47:39.169Z,9.279846
2023-02-11T05:48:39.186Z,9.279837
2023-02-11T05:49:39.134Z,9.279893
2023-02-11T05:50:39.122Z,9.279937
2023-02-11T05:51:39.098Z,9.279878
2023-02-11T05:52:39.136Z,9.279698
2023-02-11T05:53:39.084Z,9.279683
2023-02-11T05:54:39.038Z,9.279678
2023-02-11T05:55:39.021Z,9.279511
2023-02-11T05:56:38.999Z,9.279652
2023-02-11T05:57:38.980Z,9.279789
2023-02-11T05:58:38.981Z,9.279915
2023-02-11T05:59:39.953Z,9.279841
2023-02-11T06:00:38.928Z,9.279924
2023-02-11T06:01:38.911Z,9.279990
2023-02-11T06:02:38.935Z,9.279969
2023-02-11T06:03:38.968Z,9.279914
2023-02-11T06:04:38.848Z,9.279902
2023-02-11T06:05:38.832Z,9.279865
2023-02-11T06:06:38.812Z,9.279937
2023-02-11T06:07:38.793Z,9.279925
2023-02-11T06:08:39.451Z,9.279861
2023-02-11T06:09:39.752Z,9.279926
2023-02-11T06:10:38.734Z,9.279718
2023-02-11T06:11:38.714Z,9.279959
2023-02-11T06:12:38.694Z,9.279963
2023-02-11T06:13:38.704Z,9.279944
2023-02-11T06:14:38.660Z,9.279926
2023-02-11T06:15:38.667Z,9.280021
2023-02-11T06:16:38.629Z,9.279918
2023-02-11T06:17:38.607Z,9.279956
2023-02-11T06:18:38.614Z,9.279985
2023-02-11T06:19:38.566Z,9.279792
2023-02-11T06:20:38.549Z,9.279994
2023-02-11T06:21:44.225Z,9.280003
2023-02-11T06:22:40.513Z,9.279981
2023-02-11T06:23:38.527Z,9.279959
2023-02-11T06:24:59.918Z,9.280029
2023-02-11T06:25:40.462Z,9.280012
2023-02-11T06:26:38.444Z,9.280014
2023-02-11T06:27:38.437Z,9.280027
2023-02-11T06:28:41.674Z,9.279944
2023-02-11T06:29:39.385Z,9.279896
2023-02-11T06:30:38.366Z,9.279918
2023-02-11T06:31:38.527Z,9.279891
2023-02-11T06:32:46.155Z,9.279881
2023-02-11T06:33:40.349Z,9.279882
2023-02-11T06:34:38.291Z,9.279961
2023-02-11T06:35:38.277Z,9.279839
2023-02-11T06:36:38.260Z,9.279917
2023-02-11T06:37:38.244Z,9.279938
2023-02-11T06:38:38.249Z,9.279956
2023-02-11T06:39:38.202Z,9.279940
2023-02-11T06:40:38.295Z,9.280019
2023-02-11T06:41:38.174Z,9.280001
2023-02-11T06:42:38.148Z,9.280107
2023-02-11T06:43:38.163Z,9.280012
2023-02-11T06:44:38.113Z,9.280012
2023-02-11T06:45:38.085Z,9.280003
2023-02-11T06:46:38.159Z,9.280023
2023-02-11T06:47:38.064Z,9.279951
2023-02-11T06:48:38.068Z,9.280071
2023-02-11T06:49:38.018Z,9.280066
2023-02-11T06:50:38.000Z,9.279956
2023-02-11T06:51:37.969Z,9.279969
2023-02-11T06:52:38.965Z,9.279946
2023-02-11T06:53:37.972Z,9.280076
2023-02-11T06:54:37.921Z,9.280090
2023-02-11T06:55:37.905Z,9.280063
2023-02-11T06:56:37.880Z,9.279979
2023-02-11T06:57:37.866Z,9.280030
2023-02-11T06:58:37.874Z,9.280045
2023-02-11T06:59:37.826Z,9.280043
2023-02-11T07:00:37.812Z,9.280053
2023-02-11T07:01:37.851Z,9.279919
2023-02-11T07:02:37.818Z,9.279917
2023-02-11T07:03:37.781Z,9.279961
2023-02-11T07:04:37.729Z,9.280000
2023-02-11T07:05:37.714Z,9.279999
2023-02-11T07:06:37.699Z,9.279895
2023-02-11T07:07:37.697Z,9.279899
2023-02-11T07:08:37.691Z,9.279864
2023-02-11T07:09:37.676Z,9.279863
2023-02-11T07:10:37.619Z,9.279860
2023-02-11T07:11:37.602Z,9.279887
2023-02-11T07:12:37.587Z,9.279902
2023-02-11T07:13:37.564Z,9.279768
2023-02-11T07:14:37.581Z,9.279906
2023-02-11T07:15:37.536Z,9.279988
2023-02-11T07:16:37.575Z,9.280007
2023-02-11T07:17:37.501Z,9.280028
2023-02-11T07:18:37.468Z,9.280034
2023-02-11T07:19:38.486Z,9.279996
2023-02-11T07:20:37.439Z,9.279940
2023-02-11T07:21:37.424Z,9.279954
2023-02-11T07:22:37.404Z,9.279939
2023-02-11T07:23:37.410Z,9.279924
2023-02-11T07:24:37.362Z,9.279957
2023-02-11T07:25:37.347Z,9.279878
2023-02-11T07:26:37.321Z,9.279800
2023-02-11T07:27:37.302Z,9.279839
2023-02-11T07:28:37.390Z,9.279886
2023-02-11T07:29:37.263Z,9.279898
2023-02-11T07:30:37.242Z,9.279903
2023-02-11T07:31:37.316Z,9.279959
2023-02-11T07:32:37.205Z,9.279973
2023-02-11T07:33:37.238Z,9.279991
2023-02-11T07:34:37.189Z,9.280144
2023-02-11T07:35:37.154Z,9.280124
2023-02-11T07:36:37.135Z,9.280025
2023-02-11T07:37:37.116Z,9.279952
2023-02-11T07:38:37.124Z,9.279920
2023-02-11T07:39:37.076Z,9.280017
2023-02-11T07:40:37.059Z,9.280035
2023-02-11T07:41:38.093Z,9.280038
2023-02-11T07:42:38.023Z,9.280076
2023-02-11T07:43:37.041Z,9.280014
2023-02-11T07:44:36.989Z,9.279950
2023-02-11T07:45:36.965Z,9.280032
2023-02-11T07:46:37.024Z,9.279897
2023-02-11T07:47:36.929Z,9.279911
2023-02-11T07:48:36.942Z,9.279960
2023-02-11T07:49:36.904Z,9.279909
2023-02-11T07:50:36.877Z,9.280002
2023-02-11T07:51:36.856Z,9.280002
2023-02-11T07:52:36.837Z,9.279961
2023-02-11T07:53:36.850Z,9.279974
2023-02-11T07:54:36.824Z,9.279987
2023-02-11T07:55:36.778Z,9.279927
2023-02-11T07:56:36.761Z,9.279879
2023-02-11T07:57:36.742Z,9.279815
2023-02-11T07:58:36.764Z,9.279952
2023-02-11T07:59:36.710Z,9.279902
2023-02-11T08:00:36.717Z,9.279926
2023-02-11T08:01:36.673Z,9.279998
2023-02-11T08:02:36.673Z,9.279939
2023-02-11T08:03:36.681Z,9.279921
2023-02-11T08:04:36.617Z,9.280033
2023-02-11T08:05:36.593Z,9.280015
2023-02-11T08:06:36.599Z,9.280064
2023-02-11T08:07:36.558Z,9.279927
2023-02-11T08:08:36.567Z,9.279891
2023-02-11T08:09:36.534Z,9.279994
2023-02-11T08:10:36.509Z,9.279927
2023-02-11T08:11:36.481Z,9.279926
2023-02-11T08:12:36.466Z,9.279919
2023-02-11T08:13:36.482Z,9.279961
2023-02-11T08:14:36.434Z,9.279986
2023-02-11T08:15:36.420Z,9.279959
2023-02-11T08:16:36.446Z,9.279926
2023-02-11T08:17:36.378Z,9.279918
2023-02-11T08:18:36.405Z,9.279931
2023-02-11T08:19:36.338Z,9.279967
2023-02-11T08:20:36.316Z,9.279937
2023-02-11T08:21:36.301Z,9.279899
2023-02-11T08:22:36.294Z,9.279969
2023-02-11T08:23:36.283Z,9.279973
2023-02-11T08:24:36.233Z,9.279964
2023-02-11T08:25:36.219Z,9.279959
2023-02-11T08:26:36.202Z,9.280001
2023-02-11T08:27:36.191Z,9.279960
2023-02-11T08:28:36.743Z,9.279936
2023-02-11T08:29:36.155Z,9.279933
2023-02-11T08:30:36.133Z,9.279875
2023-02-11T08:31:36.237Z,9.279883
2023-02-11T08:32:36.092Z,9.279967
2023-02-11T08:33:36.103Z,9.279968
2023-02-11T08:34:36.057Z,9.279963
2023-02-11T08:35:36.030Z,9.279922
2023-02-11T08:36:36.017Z,9.279939
2023-02-11T08:37:35.999Z,9.280004
2023-02-11T08:38:36.004Z,9.279953
2023-02-11T08:39:35.959Z,9.279782
2023-02-11T08:40:35.967Z,9.279865
2023-02-11T08:41:35.922Z,9.279892
2023-02-11T08:42:35.908Z,9.280000
2023-02-11T08:43:35.918Z,9.280011
2023-02-11T08:44:35.867Z,9.279904
2023-02-11T08:45:35.938Z,9.279927
2023-02-11T08:46:35.835Z,9.279871
2023-02-11T08:47:35.805Z,9.279951
2023-02-11T08:48:35.820Z,9.280050
2023-02-11T08:49:35.768Z,9.279915
2023-02-11T08:50:35.781Z,9.280078
2023-02-11T08:51:35.745Z,9.280136
2023-02-11T08:52:35.713Z,9.280108
2023-02-11T08:53:35.732Z,9.280053
2023-02-11T08:54:35.677Z,9.279946
2023-02-11T08:55:35.658Z,9.279902
2023-02-11T08:56:35.643Z,9.279969
2023-02-11T08:57:35.627Z,9.279928
2023-02-11T08:58:35.602Z,9.279941
2023-02-11T08:59:35.619Z,9.279901
2023-02-11T09:00:35.566Z,9.279930
2023-02-11T09:01:35.626Z,9.279993
2023-02-11T09:02:35.574Z,9.279907
2023-02-11T09:03:35.526Z,9.279917
2023-02-11T09:04:35.525Z,9.279964
2023-02-11T09:05:35.475Z,9.279839
2023-02-11T09:06:35.458Z,9.280050
2023-02-11T09:07:35.440Z,9.280028
2023-02-11T09:08:35.422Z,9.279920
2023-02-11T09:09:35.433Z,9.279982
2023-02-11T09:10:35.386Z,9.279916
2023-02-11T09:11:35.371Z,9.279971
2023-02-11T09:12:35.345Z,9.280042
2023-02-11T09:13:35.330Z,9.280030
2023-02-11T09:14:35.339Z,9.279799
2023-02-11T09:15:35.292Z,9.280070
2023-02-11T09:16:35.341Z,9.280097
2023-02-11T09:17:35.249Z,9.280044
2023-02-11T09:18:35.231Z,9.279889
2023-02-11T09:19:35.243Z,9.280043
2023-02-11T09:20:35.210Z,9.280036
2023-02-11T09:21:35.176Z,9.279962
2023-02-11T09:22:35.159Z,9.280021
2023-02-11T09:23:35.177Z,9.280138
2023-02-11T09:24:35.148Z,9.280013
2023-02-11T09:25:35.102Z,9.279935
2023-02-11T09:26:35.081Z,9.279842
2023-02-11T09:27:35.067Z,9.279829
2023-02-11T09:28:35.106Z,9.279858
2023-02-11T09:29:35.077Z,9.279913
2023-02-11T09:30:35.104Z,9.279919
2023-02-11T09:31:35.286Z,9.279788
2023-02-11T09:32:34.983Z,9.279868
2023-02-11T09:33:34.955Z,9.279950
2023-02-11T09:34:34.971Z,9.279918
2023-02-11T09:35:34.926Z,9.279987
2023-02-11T09:36:34.923Z,9.280030
2023-02-11T09:37:37.257Z,9.279887
2023-02-11T09:38:35.879Z,9.279869
2023-02-11T09:39:35.882Z,9.279842
2023-02-11T09:40:34.853Z,9.279826
2023-02-11T09:41:34.821Z,9.279844
2023-02-11T09:42:34.799Z,9.279859
2023-02-11T09:43:34.780Z,9.279829
2023-02-11T09:44:34.817Z,9.279908
2023-02-11T09:45:34.753Z,9.279990
2023-02-11T09:46:34.764Z,9.280035
2023-02-11T09:47:34.721Z,9.280112
2023-02-11T09:48:34.697Z,9.280025
2023-02-11T09:49:34.706Z,9.280062
2023-02-11T09:50:34.671Z,9.279983
2023-02-11T09:51:34.643Z,9.279989
2023-02-11T09:52:34.636Z,9.279984
2023-02-11T09:53:34.605Z,9.279968
2023-02-11T09:54:34.618Z,9.279907
2023-02-11T09:55:34.577Z,9.279959
2023-02-11T09:56:34.583Z,9.279961
2023-02-11T09:57:34.533Z,9.279962
2023-02-11T09:58:34.523Z,9.279986
2023-02-11T09:59:34.527Z,9.279963
2023-02-11T10:00:34.497Z,9.279955
2023-02-11T10:01:34.495Z,9.280000
2023-02-11T10:02:34.442Z,9.279930
2023-02-11T10:03:34.475Z,9.279910
2023-02-11T10:04:34.489Z,9.279981
2023-02-11T10:05:34.401Z,9.280010
2023-02-11T10:06:34.372Z,9.279912
2023-02-11T10:07:34.360Z,9.279917
2023-02-11T10:08:34.338Z,9.279918
2023-02-11T10:09:34.347Z,9.279929
2023-02-11T10:10:34.305Z,9.280003
2023-02-11T10:11:34.285Z,9.279982
2023-02-11T10:12:34.315Z,9.279936
2023-02-11T10:13:34.251Z,9.279937
2023-02-11T10:14:34.265Z,9.279981
2023-02-11T10:15:34.243Z,9.279943
2023-02-11T10:16:34.199Z,9.279970
2023-02-11T10:17:34.181Z,9.279990
2023-02-11T10:18:34.165Z,9.279943
2023-02-11T10:19:34.169Z,9.279939
2023-02-11T10:20:34.124Z,9.279961
2023-02-11T10:21:35.111Z,9.279945
2023-02-11T10:22:34.093Z,9.279983
2023-02-11T10:23:34.084Z,9.279994
2023-02-11T10:24:34.085Z,9.280022
2023-02-11T10:25:34.040Z,9.279969
2023-02-11T10:26:34.038Z,9.279912
2023-02-11T10:27:34.015Z,9.279957
2023-02-11T10:28:34.096Z,9.279957
2023-02-11T10:29:34.010Z,9.279961
2023-02-11T10:30:33.984Z,9.279944
2023-02-11T10:31:34.024Z,9.280067
2023-02-11T10:32:33.926Z,9.280029
2023-02-11T10:33:33.915Z,9.280054
2023-02-11T10:34:33.914Z,9.279979
2023-02-11T10:35:33.873Z,9.280046
2023-02-11T10:36:33.854Z,9.280077
2023-02-11T10:37:33.840Z,9.280065
2023-02-11T10:38:33.835Z,9.279966
2023-02-11T10:39:33.825Z,9.279883
2023-02-11T10:40:33.787Z,9.279947
2023-02-11T10:41:33.782Z,9.279963
2023-02-11T10:42:33.734Z,9.280006
2023-02-11T10:43:33.716Z,9.280110
2023-02-11T10:44:33.725Z,9.280087
2023-02-11T10:45:33.677Z,9.280000
2023-02-11T10:46:33.732Z,9.280007
2023-02-11T10:47:33.649Z,9.279961
2023-02-11T10:48:33.623Z,9.280061
2023-02-11T10:49:33.633Z,9.280016
2023-02-11T10:50:33.588Z,9.279976
2023-02-11T10:51:33.581Z,9.279877
2023-02-11T10:52:33.550Z,9.279879
2023-02-11T10:53:33.538Z,9.279944
2023-02-11T10:54:33.546Z,9.280010
2023-02-11T10:55:33.496Z,9.279994
2023-02-11T10:56:33.489Z,9.280060
2023-02-11T10:57:33.452Z,9.280170
2023-02-11T10:58:34.446Z,9.280125
2023-02-11T10:59:33.461Z,9.280027
2023-02-11T11:00:33.411Z,9.280048
2023-02-11T11:01:33.460Z,9.279969
2023-02-11T11:02:33.392Z,9.279952
2023-02-11T11:03:33.358Z,9.279999
2023-02-11T11:04:33.409Z,9.279996
2023-02-11T11:05:33.325Z,9.279996
2023-02-11T11:06:33.312Z,9.279843
2023-02-11T11:07:33.293Z,9.279966
2023-02-11T11:08:33.270Z,9.279963
2023-02-11T11:09:33.287Z,9.280044
2023-02-11T11:10:33.234Z,9.279957
2023-02-11T11:11:33.214Z,9.279962
2023-02-11T11:12:33.232Z,9.279966
2023-02-11T11:13:33.179Z,9.279955
2023-02-11T11:14:33.198Z,9.279950
2023-02-11T11:15:33.147Z,9.280015
2023-02-11T11:16:33.132Z,9.279920
2023-02-11T11:17:33.113Z,9.279958
2023-02-11T11:18:33.094Z,9.280046
2023-02-11T11:19:33.114Z,9.280005
2023-02-11T11:20:33.061Z,9.280083
2023-02-11T11:21:33.052Z,9.280097
2023-02-11T11:22:33.051Z,9.279953
2023-02-11T11:23:33.007Z,9.279921
2023-02-11T11:24:32.983Z,9.279993
2023-02-11T11:25:32.969Z,9.279948
2023-02-11T11:26:32.951Z,9.279936
2023-02-11T11:27:32.963Z,9.279918
2023-02-11T11:28:32.973Z,9.279976
2023-02-11T11:29:32.900Z,9.279902
2023-02-11T11:30:32.978Z,9.279943
2023-02-11T11:31:33.039Z,9.279778
2023-02-11T11:32:32.877Z,9.279852
2023-02-11T11:33:32.826Z,9.279849
2023-02-11T11:34:32.816Z,9.279896
2023-02-11T11:35:32.822Z,9.279843
2023-02-11T11:36:32.771Z,9.279890
2023-02-11T11:37:32.774Z,9.279915
2023-02-11T11:38:32.738Z,9.280016
2023-02-11T11:39:32.733Z,9.279983
2023-02-11T11:40:32.728Z,9.280106
2023-02-11T11:41:32.677Z,9.279877
2023-02-11T11:42:32.658Z,9.280011
2023-02-11T11:43:32.644Z,9.279919
2023-02-11T11:44:32.628Z,9.279825